sensor_id;sensor_type;location;lat;lon;timestamp;P1;durP1;ratioP1;P2;durP2;ratioP2
77880;SDS011;67077;50.298;18.996;2023-03-17T00:01:50;111.30;;;41.90;;
77880;SDS011;67077;50.298;18.996;2023-03-17T00:04:20;99.30;;;39.20;;
77880;SDS011;67077;50.298;18.996;2023-03-17T00:06:49;106.50;;;41.50;;
77880;SDS011;67077;50.298;18.996;2023-03-17T00:09:17;147.10;;;54.50;;
77880;SDS011;67077;50.298;18.996;2023-03-17T00:11:45;146.00;;;54.60;;
77880;SDS011;67077;50.298;18.996;2023-03-17T00:14:13;155.60;;;57.00;;
77880;SDS011;67077;50.298;18.996;2023-03-17T00:16:41;163.30;;;61.80;;
77880;SDS011;67077;50.298;18.996;2023-03-17T00:19:13;172.40;;;65.90;;
77880;SDS011;67077;50.298;18.996;2023-03-17T00:21:45;174.70;;;66.50;;
77880;SDS011;67077;50.298;18.996;2023-03-17T00:24:13;169.60;;;62.00;;
77880;SDS011;67077;50.298;18.996;2023-03-17T00:26:41;131.80;;;48.40;;
77880;SDS011;67077;50.298;18.996;2023-03-17T00:29:08;128.20;;;49.80;;
77880;SDS011;67077;50.298;18.996;2023-03-17T00:31:36;143.30;;;53.20;;
77880;SDS011;67077;50.298;18.996;2023-03-17T00:34:04;153.20;;;56.20;;
77880;SDS011;67077;50.298;18.996;2023-03-17T00:36:33;174.20;;;66.20;;
77880;SDS011;67077;50.298;18.996;2023-03-17T00:39:01;175.40;;;62.20;;
77880;SDS011;67077;50.298;18.996;2023-03-17T00:41:28;179.40;;;64.80;;
77880;SDS011;67077;50.298;18.996;2023-03-17T00:43:55;169.10;;;61.40;;
77880;SDS011;67077;50.298;18.996;2023-03-17T00:46:24;179.60;;;66.90;;
77880;SDS011;67077;50.298;18.996;2023-03-17T00:48:53;189.70;;;71.00;;
77880;SDS011;67077;50.298;18.996;2023-03-17T00:51:20;185.00;;;66.50;;
77880;SDS011;67077;50.298;18.996;2023-03-17T00:53:49;177.60;;;67.10;;
77880;SDS011;67077;50.298;18.996;2023-03-17T00:56:16;170.90;;;64.60;;
77880;SDS011;67077;50.298;18.996;2023-03-17T00:58:46;165.50;;;61.70;;
77880;SDS011;67077;50.298;18.996;2023-03-17T01:01:14;152.40;;;58.40;;
77880;SDS011;67077;50.298;18.996;2023-03-17T01:03:41;161.90;;;63.20;;
77880;SDS011;67077;50.298;18.996;2023-03-17T01:06:09;180.40;;;67.50;;
77880;SDS011;67077;50.298;18.996;2023-03-17T01:11:13;156.60;;;58.20;;
77880;SDS011;67077;50.298;18.996;2023-03-17T01:13:43;131.20;;;48.20;;
77880;SDS011;67077;50.298;18.996;2023-03-17T01:16:11;131.80;;;51.80;;
77880;SDS011;67077;50.298;18.996;2023-03-17T01:18:38;150.50;;;58.30;;
77880;SDS011;67077;50.298;18.996;2023-03-17T01:21:05;139.80;;;52.90;;
77880;SDS011;67077;50.298;18.996;2023-03-17T01:23:34;136.50;;;49.50;;
77880;SDS011;67077;50.298;18.996;2023-03-17T01:26:01;139.80;;;53.20;;
77880;SDS011;67077;50.298;18.996;2023-03-17T01:28:28;153.90;;;58.80;;
77880;SDS011;67077;50.298;18.996;2023-03-17T01:30:55;150.10;;;56.40;;
77880;SDS011;67077;50.298;18.996;2023-03-17T01:33:23;147.90;;;54.00;;
77880;SDS011;67077;50.298;18.996;2023-03-17T01:35:51;142.00;;;53.20;;
77880;SDS011;67077;50.298;18.996;2023-03-17T01:38:17;146.20;;;57.90;;
77880;SDS011;67077;50.298;18.996;2023-03-17T01:40:49;156.20;;;60.50;;
77880;SDS011;67077;50.298;18.996;2023-03-17T01:51:40;166.00;;;64.10;;
77880;SDS011;67077;50.298;18.996;2023-03-17T01:54:17;147.80;;;57.50;;
77880;SDS011;67077;50.298;18.996;2023-03-17T01:56:49;163.90;;;62.80;;
77880;SDS011;67077;50.298;18.996;2023-03-17T01:59:20;168.30;;;65.50;;
77880;SDS011;67077;50.298;18.996;2023-03-17T02:04:20;149.20;;;55.80;;
77880;SDS011;67077;50.298;18.996;2023-03-17T02:06:48;159.50;;;60.00;;
77880;SDS011;67077;50.298;18.996;2023-03-17T02:09:17;159.70;;;60.20;;
77880;SDS011;67077;50.298;18.996;2023-03-17T02:11:44;148.00;;;55.50;;
77880;SDS011;67077;50.298;18.996;2023-03-17T02:14:11;135.30;;;49.80;;
77880;SDS011;67077;50.298;18.996;2023-03-17T02:16:37;147.60;;;56.70;;
77880;SDS011;67077;50.298;18.996;2023-03-17T02:19:04;145.20;;;56.70;;
77880;SDS011;67077;50.298;18.996;2023-03-17T02:24:38;142.60;;;53.90;;
77880;SDS011;67077;50.298;18.996;2023-03-17T02:29:43;131.70;;;51.90;;
77880;SDS011;67077;50.298;18.996;2023-03-17T02:32:15;124.80;;;49.10;;
77880;SDS011;67077;50.298;18.996;2023-03-17T02:34:43;120.50;;;47.00;;
77880;SDS011;67077;50.298;18.996;2023-03-17T02:37:11;114.20;;;45.60;;
77880;SDS011;67077;50.298;18.996;2023-03-17T02:39:38;138.60;;;53.90;;
77880;SDS011;67077;50.298;18.996;2023-03-17T02:42:05;121.40;;;46.10;;
77880;SDS011;67077;50.298;18.996;2023-03-17T02:44:32;113.40;;;45.90;;
77880;SDS011;67077;50.298;18.996;2023-03-17T02:46:59;109.40;;;45.30;;
77880;SDS011;67077;50.298;18.996;2023-03-17T02:49:26;116.90;;;46.80;;
77880;SDS011;67077;50.298;18.996;2023-03-17T02:51:54;115.00;;;47.10;;
77880;SDS011;67077;50.298;18.996;2023-03-17T02:54:22;104.50;;;42.80;;
77880;SDS011;67077;50.298;18.996;2023-03-17T02:56:48;98.30;;;39.30;;
77880;SDS011;67077;50.298;18.996;2023-03-17T02:59:15;100.40;;;40.80;;
77880;SDS011;67077;50.298;18.996;2023-03-17T03:01:42;109.40;;;43.70;;
77880;SDS011;67077;50.298;18.996;2023-03-17T03:04:08;106.50;;;43.50;;
77880;SDS011;67077;50.298;18.996;2023-03-17T03:06:35;111.60;;;44.50;;
77880;SDS011;67077;50.298;18.996;2023-03-17T03:09:02;103.90;;;42.70;;
77880;SDS011;67077;50.298;18.996;2023-03-17T03:11:29;96.40;;;39.40;;
77880;SDS011;67077;50.298;18.996;2023-03-17T03:13:56;109.40;;;43.50;;
77880;SDS011;67077;50.298;18.996;2023-03-17T03:16:22;105.60;;;41.10;;
77880;SDS011;67077;50.298;18.996;2023-03-17T03:18:49;81.90;;;32.60;;
77880;SDS011;67077;50.298;18.996;2023-03-17T03:21:15;91.20;;;37.90;;
77880;SDS011;67077;50.298;18.996;2023-03-17T03:23:42;105.50;;;41.70;;
77880;SDS011;67077;50.298;18.996;2023-03-17T03:26:09;95.40;;;38.90;;
77880;SDS011;67077;50.298;18.996;2023-03-17T03:28:35;98.90;;;40.40;;
77880;SDS011;67077;50.298;18.996;2023-03-17T03:31:02;85.00;;;36.50;;
77880;SDS011;67077;50.298;18.996;2023-03-17T03:33:28;88.80;;;36.80;;
77880;SDS011;67077;50.298;18.996;2023-03-17T03:35:55;95.60;;;39.80;;
77880;SDS011;67077;50.298;18.996;2023-03-17T03:38:22;101.40;;;41.70;;
77880;SDS011;67077;50.298;18.996;2023-03-17T03:40:48;102.90;;;40.50;;
77880;SDS011;67077;50.298;18.996;2023-03-17T03:43:15;87.80;;;36.40;;
77880;SDS011;67077;50.298;18.996;2023-03-17T03:45:41;101.10;;;43.10;;
77880;SDS011;67077;50.298;18.996;2023-03-17T03:48:08;95.30;;;41.50;;
77880;SDS011;67077;50.298;18.996;2023-03-17T03:50:35;99.80;;;40.60;;
77880;SDS011;67077;50.298;18.996;2023-03-17T03:53:02;96.70;;;39.80;;
77880;SDS011;67077;50.298;18.996;2023-03-17T03:55:29;83.20;;;35.70;;
77880;SDS011;67077;50.298;18.996;2023-03-17T03:57:55;97.30;;;39.00;;
77880;SDS011;67077;50.298;18.996;2023-03-17T04:00:22;89.40;;;36.80;;
77880;SDS011;67077;50.298;18.996;2023-03-17T04:02:49;87.60;;;35.40;;
77880;SDS011;67077;50.298;18.996;2023-03-17T04:05:16;90.30;;;37.10;;
77880;SDS011;67077;50.298;18.996;2023-03-17T04:07:43;96.70;;;38.90;;
77880;SDS011;67077;50.298;18.996;2023-03-17T04:10:11;90.40;;;35.70;;
77880;SDS011;67077;50.298;18.996;2023-03-17T04:12:39;86.80;;;36.40;;
77880;SDS011;67077;50.298;18.996;2023-03-17T04:15:07;89.20;;;38.00;;
77880;SDS011;67077;50.298;18.996;2023-03-17T04:17:36;88.40;;;36.80;;
77880;SDS011;67077;50.298;18.996;2023-03-17T04:20:03;90.60;;;35.50;;
77880;SDS011;67077;50.298;18.996;2023-03-17T04:22:30;80.10;;;33.40;;
77880;SDS011;67077;50.298;18.996;2023-03-17T04:24:57;74.20;;;31.60;;
77880;SDS011;67077;50.298;18.996;2023-03-17T04:27:23;77.10;;;32.10;;
77880;SDS011;67077;50.298;18.996;2023-03-17T04:29:50;77.70;;;33.40;;
77880;SDS011;67077;50.298;18.996;2023-03-17T04:32:17;74.40;;;30.80;;
77880;SDS011;67077;50.298;18.996;2023-03-17T04:34:44;79.90;;;33.80;;
77880;SDS011;67077;50.298;18.996;2023-03-17T04:37:11;81.80;;;32.20;;
77880;SDS011;67077;50.298;18.996;2023-03-17T04:39:39;68.40;;;28.80;;
77880;SDS011;67077;50.298;18.996;2023-03-17T04:42:05;78.70;;;33.50;;
77880;SDS011;67077;50.298;18.996;2023-03-17T04:44:32;79.50;;;33.40;;
77880;SDS011;67077;50.298;18.996;2023-03-17T04:46:59;73.90;;;31.60;;
77880;SDS011;67077;50.298;18.996;2023-03-17T04:49:26;73.40;;;31.40;;
77880;SDS011;67077;50.298;18.996;2023-03-17T04:51:53;69.40;;;30.50;;
77880;SDS011;67077;50.298;18.996;2023-03-17T04:54:20;76.20;;;33.10;;
77880;SDS011;67077;50.298;18.996;2023-03-17T04:56:47;76.80;;;34.30;;
77880;SDS011;67077;50.298;18.996;2023-03-17T04:59:14;66.60;;;28.70;;
77880;SDS011;67077;50.298;18.996;2023-03-17T05:01:41;62.30;;;27.30;;
77880;SDS011;67077;50.298;18.996;2023-03-17T05:04:08;64.60;;;27.30;;
77880;SDS011;67077;50.298;18.996;2023-03-17T05:06:34;64.00;;;28.90;;
77880;SDS011;67077;50.298;18.996;2023-03-17T05:09:02;61.60;;;27.00;;
77880;SDS011;67077;50.298;18.996;2023-03-17T05:11:29;70.10;;;30.80;;
77880;SDS011;67077;50.298;18.996;2023-03-17T05:13:57;66.80;;;25.10;;
77880;SDS011;67077;50.298;18.996;2023-03-17T05:16:24;66.60;;;28.60;;
77880;SDS011;67077;50.298;18.996;2023-03-17T05:18:50;61.90;;;27.80;;
77880;SDS011;67077;50.298;18.996;2023-03-17T05:21:17;69.60;;;29.60;;
77880;SDS011;67077;50.298;18.996;2023-03-17T05:23:44;65.70;;;29.10;;
77880;SDS011;67077;50.298;18.996;2023-03-17T05:26:10;67.00;;;28.00;;
77880;SDS011;67077;50.298;18.996;2023-03-17T05:28:38;63.30;;;26.70;;
77880;SDS011;67077;50.298;18.996;2023-03-17T05:31:05;65.70;;;29.30;;
77880;SDS011;67077;50.298;18.996;2023-03-17T05:33:31;68.40;;;30.20;;
77880;SDS011;67077;50.298;18.996;2023-03-17T05:35:58;65.40;;;28.40;;
77880;SDS011;67077;50.298;18.996;2023-03-17T05:38:25;63.10;;;26.40;;
77880;SDS011;67077;50.298;18.996;2023-03-17T05:40:52;69.20;;;29.80;;
77880;SDS011;67077;50.298;18.996;2023-03-17T05:43:19;59.50;;;26.10;;
77880;SDS011;67077;50.298;18.996;2023-03-17T05:45:46;67.90;;;28.60;;
77880;SDS011;67077;50.298;18.996;2023-03-17T05:48:15;70.70;;;29.30;;
77880;SDS011;67077;50.298;18.996;2023-03-17T05:50:42;64.40;;;27.80;;
77880;SDS011;67077;50.298;18.996;2023-03-17T05:53:09;74.90;;;32.50;;
77880;SDS011;67077;50.298;18.996;2023-03-17T05:55:35;75.90;;;32.10;;
77880;SDS011;67077;50.298;18.996;2023-03-17T05:58:02;80.00;;;36.40;;
77880;SDS011;67077;50.298;18.996;2023-03-17T06:00:30;80.70;;;34.20;;
77880;SDS011;67077;50.298;18.996;2023-03-17T06:02:57;68.10;;;28.70;;
77880;SDS011;67077;50.298;18.996;2023-03-17T06:05:23;69.60;;;29.70;;
77880;SDS011;67077;50.298;18.996;2023-03-17T06:07:50;68.50;;;30.00;;
77880;SDS011;67077;50.298;18.996;2023-03-17T06:10:17;75.80;;;33.80;;
77880;SDS011;67077;50.298;18.996;2023-03-17T06:12:43;73.90;;;32.20;;
77880;SDS011;67077;50.298;18.996;2023-03-17T06:15:10;84.50;;;34.90;;
77880;SDS011;67077;50.298;18.996;2023-03-17T06:17:37;68.20;;;31.00;;
77880;SDS011;67077;50.298;18.996;2023-03-17T06:20:04;62.50;;;26.20;;
77880;SDS011;67077;50.298;18.996;2023-03-17T06:22:31;63.40;;;27.40;;
77880;SDS011;67077;50.298;18.996;2023-03-17T06:24:58;60.40;;;26.70;;
77880;SDS011;67077;50.298;18.996;2023-03-17T06:27:24;60.60;;;25.30;;
77880;SDS011;67077;50.298;18.996;2023-03-17T06:29:51;73.10;;;28.30;;
77880;SDS011;67077;50.298;18.996;2023-03-17T06:32:18;72.30;;;31.20;;
77880;SDS011;67077;50.298;18.996;2023-03-17T06:34:45;70.10;;;29.90;;
77880;SDS011;67077;50.298;18.996;2023-03-17T06:37:12;68.30;;;28.60;;
77880;SDS011;67077;50.298;18.996;2023-03-17T06:39:39;74.80;;;30.00;;
77880;SDS011;67077;50.298;18.996;2023-03-17T06:42:07;61.20;;;27.40;;
77880;SDS011;67077;50.298;18.996;2023-03-17T06:44:34;63.50;;;27.40;;
77880;SDS011;67077;50.298;18.996;2023-03-17T06:47:01;66.30;;;28.20;;
77880;SDS011;67077;50.298;18.996;2023-03-17T06:49:28;66.20;;;29.00;;
77880;SDS011;67077;50.298;18.996;2023-03-17T06:51:54;65.70;;;29.30;;
77880;SDS011;67077;50.298;18.996;2023-03-17T06:54:21;64.60;;;27.10;;
77880;SDS011;67077;50.298;18.996;2023-03-17T06:56:51;67.20;;;28.60;;
77880;SDS011;67077;50.298;18.996;2023-03-17T06:59:18;62.80;;;29.10;;
77880;SDS011;67077;50.298;18.996;2023-03-17T07:01:46;67.10;;;28.80;;
77880;SDS011;67077;50.298;18.996;2023-03-17T07:04:14;65.20;;;29.10;;
77880;SDS011;67077;50.298;18.996;2023-03-17T07:06:41;61.10;;;27.60;;
77880;SDS011;67077;50.298;18.996;2023-03-17T07:09:08;70.20;;;30.00;;
77880;SDS011;67077;50.298;18.996;2023-03-17T07:11:35;72.00;;;29.80;;
77880;SDS011;67077;50.298;18.996;2023-03-17T07:14:01;65.60;;;29.40;;
77880;SDS011;67077;50.298;18.996;2023-03-17T07:16:28;63.20;;;28.40;;
77880;SDS011;67077;50.298;18.996;2023-03-17T07:18:55;65.00;;;27.90;;
77880;SDS011;67077;50.298;18.996;2023-03-17T07:21:22;58.40;;;26.80;;
77880;SDS011;67077;50.298;18.996;2023-03-17T07:23:49;59.20;;;24.70;;
77880;SDS011;67077;50.298;18.996;2023-03-17T07:26:15;53.30;;;24.40;;
77880;SDS011;67077;50.298;18.996;2023-03-17T07:28:42;60.20;;;25.50;;
77880;SDS011;67077;50.298;18.996;2023-03-17T07:31:09;55.80;;;24.80;;
77880;SDS011;67077;50.298;18.996;2023-03-17T07:33:39;49.10;;;21.80;;
77880;SDS011;67077;50.298;18.996;2023-03-17T07:36:07;47.40;;;22.70;;
77880;SDS011;67077;50.298;18.996;2023-03-17T07:38:34;50.70;;;21.90;;
77880;SDS011;67077;50.298;18.996;2023-03-17T07:41:01;39.90;;;19.60;;
77880;SDS011;67077;50.298;18.996;2023-03-17T07:43:29;45.10;;;19.20;;
77880;SDS011;67077;50.298;18.996;2023-03-17T07:45:55;46.00;;;20.30;;
77880;SDS011;67077;50.298;18.996;2023-03-17T07:48:23;42.50;;;19.50;;
77880;SDS011;67077;50.298;18.996;2023-03-17T07:50:49;45.20;;;19.40;;
77880;SDS011;67077;50.298;18.996;2023-03-17T07:53:16;35.50;;;16.80;;
77880;SDS011;67077;50.298;18.996;2023-03-17T07:55:43;35.50;;;16.40;;
77880;SDS011;67077;50.298;18.996;2023-03-17T07:58:10;34.60;;;15.10;;
77880;SDS011;67077;50.298;18.996;2023-03-17T08:00:37;35.60;;;15.40;;
77880;SDS011;67077;50.298;18.996;2023-03-17T08:03:04;36.30;;;14.90;;
77880;SDS011;67077;50.298;18.996;2023-03-17T08:05:32;29.50;;;13.90;;
77880;SDS011;67077;50.298;18.996;2023-03-17T08:08:02;34.30;;;14.20;;
77880;SDS011;67077;50.298;18.996;2023-03-17T08:10:30;28.70;;;12.20;;
77880;SDS011;67077;50.298;18.996;2023-03-17T08:12:57;27.20;;;12.30;;
77880;SDS011;67077;50.298;18.996;2023-03-17T08:15:24;27.30;;;11.50;;
77880;SDS011;67077;50.298;18.996;2023-03-17T08:17:51;23.30;;;11.80;;
77880;SDS011;67077;50.298;18.996;2023-03-17T08:20:18;27.90;;;11.20;;
77880;SDS011;67077;50.298;18.996;2023-03-17T08:22:45;21.10;;;9.70;;
77880;SDS011;67077;50.298;18.996;2023-03-17T08:25:12;23.50;;;11.10;;
77880;SDS011;67077;50.298;18.996;2023-03-17T08:27:40;21.60;;;8.90;;
77880;SDS011;67077;50.298;18.996;2023-03-17T08:30:08;22.20;;;10.60;;
77880;SDS011;67077;50.298;18.996;2023-03-17T08:32:37;26.50;;;10.50;;
77880;SDS011;67077;50.298;18.996;2023-03-17T08:35:05;22.30;;;10.00;;
77880;SDS011;67077;50.298;18.996;2023-03-17T08:37:33;22.00;;;10.80;;
77880;SDS011;67077;50.298;18.996;2023-03-17T08:40:04;24.80;;;11.10;;
77880;SDS011;67077;50.298;18.996;2023-03-17T08:42:31;22.10;;;9.90;;
77880;SDS011;67077;50.298;18.996;2023-03-17T08:44:58;18.20;;;8.70;;
77880;SDS011;67077;50.298;18.996;2023-03-17T08:47:29;18.30;;;7.30;;
77880;SDS011;67077;50.298;18.996;2023-03-17T08:50:18;20.20;;;9.00;;
77880;SDS011;67077;50.298;18.996;2023-03-17T08:52:47;15.60;;;8.10;;
77880;SDS011;67077;50.298;18.996;2023-03-17T08:55:15;16.50;;;8.00;;
77880;SDS011;67077;50.298;18.996;2023-03-17T08:57:42;20.70;;;8.70;;
77880;SDS011;67077;50.298;18.996;2023-03-17T09:00:15;18.80;;;8.90;;
77880;SDS011;67077;50.298;18.996;2023-03-17T09:03:05;16.90;;;8.50;;
77880;SDS011;67077;50.298;18.996;2023-03-17T09:05:31;15.40;;;8.00;;
77880;SDS011;67077;50.298;18.996;2023-03-17T09:07:58;19.10;;;8.50;;
77880;SDS011;67077;50.298;18.996;2023-03-17T09:10:25;17.90;;;8.00;;
77880;SDS011;67077;50.298;18.996;2023-03-17T09:13:08;15.90;;;7.20;;
77880;SDS011;67077;50.298;18.996;2023-03-17T09:15:49;13.70;;;6.60;;
77880;SDS011;67077;50.298;18.996;2023-03-17T09:18:23;16.90;;;6.50;;
77880;SDS011;67077;50.298;18.996;2023-03-17T09:20:50;14.60;;;7.10;;
77880;SDS011;67077;50.298;18.996;2023-03-17T09:23:18;11.30;;;6.50;;
77880;SDS011;67077;50.298;18.996;2023-03-17T09:25:46;13.80;;;6.80;;
77880;SDS011;67077;50.298;18.996;2023-03-17T09:28:15;15.10;;;7.30;;
77880;SDS011;67077;50.298;18.996;2023-03-17T09:30:42;13.60;;;6.80;;
77880;SDS011;67077;50.298;18.996;2023-03-17T09:33:10;12.60;;;6.00;;
77880;SDS011;67077;50.298;18.996;2023-03-17T09:35:39;15.40;;;6.20;;
77880;SDS011;67077;50.298;18.996;2023-03-17T09:38:06;12.80;;;5.90;;
77880;SDS011;67077;50.298;18.996;2023-03-17T09:40:35;11.40;;;5.80;;
77880;SDS011;67077;50.298;18.996;2023-03-17T09:46:28;13.80;;;5.50;;
77880;SDS011;67077;50.298;18.996;2023-03-17T09:49:07;9.90;;;5.50;;
77880;SDS011;67077;50.298;18.996;2023-03-17T09:51:52;15.20;;;5.90;;
77880;SDS011;67077;50.298;18.996;2023-03-17T09:58:21;13.10;;;5.30;;
77880;SDS011;67077;50.298;18.996;2023-03-17T10:00:55;12.70;;;5.90;;
77880;SDS011;67077;50.298;18.996;2023-03-17T10:03:23;12.50;;;5.30;;
77880;SDS011;67077;50.298;18.996;2023-03-17T10:12:02;11.10;;;5.20;;
77880;SDS011;67077;50.298;18.996;2023-03-17T10:14:37;12.90;;;5.40;;
77880;SDS011;67077;50.298;18.996;2023-03-17T10:17:19;9.90;;;5.20;;
77880;SDS011;67077;50.298;18.996;2023-03-17T10:23:00;9.30;;;5.00;;
77880;SDS011;67077;50.298;18.996;2023-03-17T10:25:34;10.90;;;5.30;;
77880;SDS011;67077;50.298;18.996;2023-03-17T10:28:06;11.70;;;5.20;;
77880;SDS011;67077;50.298;18.996;2023-03-17T10:30:35;14.00;;;6.70;;
77880;SDS011;67077;50.298;18.996;2023-03-17T10:33:03;12.10;;;5.60;;
77880;SDS011;67077;50.298;18.996;2023-03-17T10:35:35;13.00;;;6.40;;
77880;SDS011;67077;50.298;18.996;2023-03-17T10:38:21;14.80;;;6.70;;
77880;SDS011;67077;50.298;18.996;2023-03-17T10:40:56;15.80;;;7.20;;
77880;SDS011;67077;50.298;18.996;2023-03-17T10:43:38;17.70;;;7.80;;
77880;SDS011;67077;50.298;18.996;2023-03-17T10:48:54;16.60;;;7.60;;
77880;SDS011;67077;50.298;18.996;2023-03-17T10:51:31;17.40;;;7.80;;
77880;SDS011;67077;50.298;18.996;2023-03-17T10:54:08;14.10;;;7.30;;
77880;SDS011;67077;50.298;18.996;2023-03-17T10:56:38;17.30;;;8.60;;
77880;SDS011;67077;50.298;18.996;2023-03-17T10:59:16;20.30;;;7.90;;
77880;SDS011;67077;50.298;18.996;2023-03-17T11:01:56;18.00;;;8.10;;
77880;SDS011;67077;50.298;18.996;2023-03-17T11:04:46;13.60;;;6.80;;
77880;SDS011;67077;50.298;18.996;2023-03-17T11:07:43;12.80;;;6.50;;
77880;SDS011;67077;50.298;18.996;2023-03-17T11:10:20;12.30;;;7.00;;
77880;SDS011;67077;50.298;18.996;2023-03-17T11:12:54;14.00;;;6.80;;
77880;SDS011;67077;50.298;18.996;2023-03-17T11:15:51;14.00;;;6.40;;
77880;SDS011;67077;50.298;18.996;2023-03-17T11:18:21;15.90;;;7.10;;
77880;SDS011;67077;50.298;18.996;2023-03-17T11:24:09;12.00;;;6.20;;
77880;SDS011;67077;50.298;18.996;2023-03-17T11:26:51;10.70;;;5.70;;
77880;SDS011;67077;50.298;18.996;2023-03-17T11:32:27;11.40;;;5.40;;
77880;SDS011;67077;50.298;18.996;2023-03-17T11:55:14;14.70;;;7.00;;
77880;SDS011;67077;50.298;18.996;2023-03-17T11:57:57;15.40;;;6.70;;
77880;SDS011;67077;50.298;18.996;2023-03-17T12:00:29;13.30;;;6.50;;
77880;SDS011;67077;50.298;18.996;2023-03-17T12:05:38;14.80;;;7.30;;
77880;SDS011;67077;50.298;18.996;2023-03-17T12:08:16;17.30;;;7.10;;
77880;SDS011;67077;50.298;18.996;2023-03-17T12:10:58;14.10;;;6.90;;
77880;SDS011;67077;50.298;18.996;2023-03-17T12:13:35;14.90;;;6.80;;
77880;SDS011;67077;50.298;18.996;2023-03-17T12:16:17;14.70;;;7.00;;
77880;SDS011;67077;50.298;18.996;2023-03-17T12:19:05;13.10;;;6.60;;
77880;SDS011;67077;50.298;18.996;2023-03-17T12:24:24;16.20;;;6.30;;
77880;SDS011;67077;50.298;18.996;2023-03-17T12:29:57;14.30;;;7.10;;
77880;SDS011;67077;50.298;18.996;2023-03-17T12:32:33;15.30;;;6.50;;
77880;SDS011;67077;50.298;18.996;2023-03-17T12:54:55;13.80;;;6.80;;
77880;SDS011;67077;50.298;18.996;2023-03-17T12:57:37;14.10;;;7.00;;
77880;SDS011;67077;50.298;18.996;2023-03-17T13:00:19;13.60;;;7.00;;
77880;SDS011;67077;50.298;18.996;2023-03-17T13:03:05;15.70;;;7.00;;
77880;SDS011;67077;50.298;18.996;2023-03-17T13:05:33;14.20;;;6.90;;
77880;SDS011;67077;50.298;18.996;2023-03-17T13:08:03;13.60;;;6.50;;
77880;SDS011;67077;50.298;18.996;2023-03-17T13:10:42;12.90;;;6.70;;
77880;SDS011;67077;50.298;18.996;2023-03-17T13:13:56;12.90;;;6.20;;
77880;SDS011;67077;50.298;18.996;2023-03-17T13:16:24;14.90;;;7.00;;
77880;SDS011;67077;50.298;18.996;2023-03-17T13:19:14;14.00;;;6.70;;
77880;SDS011;67077;50.298;18.996;2023-03-17T13:21:44;15.40;;;7.00;;
77880;SDS011;67077;50.298;18.996;2023-03-17T13:24:19;15.70;;;6.90;;
77880;SDS011;67077;50.298;18.996;2023-03-17T13:32:28;14.30;;;6.60;;
77880;SDS011;67077;50.298;18.996;2023-03-17T13:37:34;15.00;;;6.80;;
77880;SDS011;67077;50.298;18.996;2023-03-17T13:40:12;13.10;;;7.00;;
77880;SDS011;67077;50.298;18.996;2023-03-17T13:45:24;12.50;;;6.70;;
77880;SDS011;67077;50.298;18.996;2023-03-17T13:48:45;14.20;;;6.90;;
77880;SDS011;67077;50.298;18.996;2023-03-17T13:53:39;14.20;;;6.70;;
77880;SDS011;67077;50.298;18.996;2023-03-17T13:56:15;12.30;;;6.20;;
77880;SDS011;67077;50.298;18.996;2023-03-17T13:59:02;14.60;;;6.30;;
77880;SDS011;67077;50.298;18.996;2023-03-17T14:01:47;12.40;;;6.60;;
77880;SDS011;67077;50.298;18.996;2023-03-17T14:04:23;14.30;;;6.60;;
77880;SDS011;67077;50.298;18.996;2023-03-17T14:07:15;15.10;;;6.70;;
77880;SDS011;67077;50.298;18.996;2023-03-17T14:09:44;13.80;;;6.50;;
77880;SDS011;67077;50.298;18.996;2023-03-17T14:12:14;11.60;;;5.80;;
77880;SDS011;67077;50.298;18.996;2023-03-17T14:17:35;11.20;;;5.80;;
77880;SDS011;67077;50.298;18.996;2023-03-17T14:22:45;13.90;;;6.20;;
77880;SDS011;67077;50.298;18.996;2023-03-17T14:25:20;12.30;;;6.40;;
77880;SDS011;67077;50.298;18.996;2023-03-17T14:27:50;12.50;;;6.00;;
77880;SDS011;67077;50.298;18.996;2023-03-17T14:30:52;12.00;;;6.40;;
77880;SDS011;67077;50.298;18.996;2023-03-17T14:33:24;12.50;;;6.40;;
77880;SDS011;67077;50.298;18.996;2023-03-17T14:35:58;11.60;;;5.60;;
77880;SDS011;67077;50.298;18.996;2023-03-17T14:38:29;13.30;;;6.20;;
77880;SDS011;67077;50.298;18.996;2023-03-17T14:40:59;9.60;;;5.70;;
77880;SDS011;67077;50.298;18.996;2023-03-17T14:43:34;12.30;;;6.00;;
77880;SDS011;67077;50.298;18.996;2023-03-17T14:46:05;11.40;;;5.90;;
77880;SDS011;67077;50.298;18.996;2023-03-17T14:48:41;12.30;;;5.70;;
77880;SDS011;67077;50.298;18.996;2023-03-17T14:53:55;11.70;;;5.80;;
77880;SDS011;67077;50.298;18.996;2023-03-17T14:56:50;10.40;;;5.70;;
77880;SDS011;67077;50.298;18.996;2023-03-17T14:59:36;14.10;;;6.10;;
77880;SDS011;67077;50.298;18.996;2023-03-17T15:02:40;12.80;;;6.10;;
77880;SDS011;67077;50.298;18.996;2023-03-17T15:07:59;13.10;;;6.10;;
77880;SDS011;67077;50.298;18.996;2023-03-17T15:10:26;13.60;;;5.80;;
77880;SDS011;67077;50.298;18.996;2023-03-17T15:12:59;11.70;;;5.40;;
77880;SDS011;67077;50.298;18.996;2023-03-17T15:15:29;12.20;;;6.20;;
77880;SDS011;67077;50.298;18.996;2023-03-17T15:18:01;11.60;;;5.90;;
77880;SDS011;67077;50.298;18.996;2023-03-17T15:20:34;12.70;;;6.00;;
77880;SDS011;67077;50.298;18.996;2023-03-17T15:23:04;12.50;;;5.80;;
77880;SDS011;67077;50.298;18.996;2023-03-17T15:25:44;13.60;;;6.90;;
77880;SDS011;67077;50.298;18.996;2023-03-17T15:28:26;11.80;;;6.10;;
77880;SDS011;67077;50.298;18.996;2023-03-17T15:30:58;11.80;;;6.20;;
77880;SDS011;67077;50.298;18.996;2023-03-17T15:33:38;12.60;;;6.20;;
77880;SDS011;67077;50.298;18.996;2023-03-17T15:36:14;11.50;;;5.50;;
77880;SDS011;67077;50.298;18.996;2023-03-17T15:38:43;10.00;;;5.20;;
77880;SDS011;67077;50.298;18.996;2023-03-17T15:41:10;13.30;;;6.20;;
77880;SDS011;67077;50.298;18.996;2023-03-17T15:43:40;12.10;;;5.70;;
77880;SDS011;67077;50.298;18.996;2023-03-17T15:46:09;15.10;;;6.00;;
77880;SDS011;67077;50.298;18.996;2023-03-17T15:48:50;14.80;;;6.40;;
77880;SDS011;67077;50.298;18.996;2023-03-17T15:51:21;13.80;;;5.90;;
77880;SDS011;67077;50.298;18.996;2023-03-17T15:53:47;11.60;;;5.90;;
77880;SDS011;67077;50.298;18.996;2023-03-17T15:56:17;11.80;;;5.60;;
77880;SDS011;67077;50.298;18.996;2023-03-17T15:58:46;10.40;;;5.50;;
77880;SDS011;67077;50.298;18.996;2023-03-17T16:01:15;14.30;;;6.40;;
77880;SDS011;67077;50.298;18.996;2023-03-17T16:03:43;17.20;;;6.90;;
77880;SDS011;67077;50.298;18.996;2023-03-17T16:06:14;13.40;;;6.60;;
77880;SDS011;67077;50.298;18.996;2023-03-17T16:08:48;15.10;;;6.30;;
77880;SDS011;67077;50.298;18.996;2023-03-17T16:11:22;15.30;;;6.60;;
77880;SDS011;67077;50.298;18.996;2023-03-17T16:13:54;15.50;;;6.20;;
77880;SDS011;67077;50.298;18.996;2023-03-17T16:16:25;15.40;;;6.20;;
77880;SDS011;67077;50.298;18.996;2023-03-17T16:21:42;13.60;;;6.30;;
77880;SDS011;67077;50.298;18.996;2023-03-17T16:31:36;12.40;;;6.50;;
77880;SDS011;67077;50.298;18.996;2023-03-17T16:38:28;16.20;;;6.00;;
77880;SDS011;67077;50.298;18.996;2023-03-17T16:40:57;12.70;;;6.00;;
77880;SDS011;67077;50.298;18.996;2023-03-17T16:43:28;16.30;;;6.90;;